KJXN/JXN METAR and TAF weather

Enter ICAO airport designator
Station Type Date Time Source
KJXN METAR 2021/08/02 01:56 UTC NOAA

KJXN 020156Z AUTO 33004KT 10SM CLR 17/13 A3008 RMK AO2 SLP184 T01720128


Station Type Date Time Source
KJXN Decoded METAR 2021/08/02 01:56 UTC NOAA

JACKSON COUNTY-REYNOLDS, MI, United States (KJXN) 42-16N 084-28W
Aug 01, 2021 - 09:56 PM EDT / 2021.08.02 0156 UTC
Wind: from the NNW (330 degrees) at 5 MPH (4 KT):0
Visibility: 10 mile(s):0
Sky conditions: clear
Temperature: 63.0 F (17.2 C)
Dew Point: 55.0 F (12.8 C)
Relative Humidity: 75%
Pressure (altimeter): 30.08 in. Hg (1018 hPa)
ob: KJXN 020156Z AUTO 33004KT 10SM CLR 17/13 A3008 RMK AO2 SLP184 T01720128
cycle: 2

Station Type Date Time Source
KJXN TAF 2021/08/01 18:42 UTC NOAA

TAF KJXN 011740Z 0118/0218 33010G19KT 5SM HZ VCSH BKN035
FM020000 01006KT P6SM SCT035
FM020700 VRB02KT 2SM BR SKC
FM021200 32008KT P6SM SKC

Example: see airport list